createdAt,value
2017-09-02T00:00:06.710Z,5.34
2017-09-02T00:02:35.129Z,5.40
2017-09-02T00:05:03.481Z,5.46
2017-09-02T00:07:31.800Z,6.58
2017-09-02T00:10:00.136Z,5.90
2017-09-02T00:12:28.452Z,6.12
2017-09-02T00:14:56.797Z,6.86
2017-09-02T00:17:25.112Z,6.20
2017-09-02T00:19:52.688Z,6.30
2017-09-02T00:22:21.005Z,6.04
2017-09-02T00:24:49.325Z,5.82
2017-09-02T00:27:17.666Z,5.80
2017-09-02T00:29:45.979Z,5.54
2017-09-02T00:32:14.312Z,6.32
2017-09-02T00:34:42.628Z,5.70
2017-09-02T00:37:10.972Z,6.80
2017-09-02T00:39:39.280Z,5.90
2017-09-02T00:42:07.616Z,6.08
2017-09-02T00:44:35.937Z,6.54
2017-09-02T00:47:04.275Z,6.10
2017-09-02T00:49:32.592Z,6.80
2017-09-02T00:52:00.951Z,6.42
2017-09-02T00:54:29.268Z,6.10
2017-09-02T00:56:57.589Z,5.64
2017-09-02T00:59:25.933Z,6.32
2017-09-02T01:01:56.179Z,6.22
2017-09-02T01:04:24.514Z,6.50
2017-09-02T01:06:52.824Z,6.18
2017-09-02T01:09:21.159Z,6.42
2017-09-02T01:11:49.473Z,7.00
2017-09-02T01:14:17.808Z,6.96
2017-09-02T01:16:46.128Z,8.00
2017-09-02T01:19:14.465Z,6.36
2017-09-02T01:21:42.779Z,7.42
2017-09-02T01:24:11.144Z,8.10
2017-09-02T01:26:39.470Z,7.12
2017-09-02T01:29:07.794Z,6.84
2017-09-02T01:31:36.135Z,7.10
2017-09-02T01:34:04.449Z,7.48
2017-09-02T01:36:32.789Z,7.26
2017-09-02T01:39:01.107Z,6.74
2017-09-02T01:41:29.438Z,7.28
2017-09-02T01:43:57.759Z,6.86
2017-09-02T01:46:26.104Z,7.54
2017-09-02T01:48:54.424Z,7.14
2017-09-02T01:51:22.743Z,7.52
2017-09-02T01:53:51.083Z,7.30
2017-09-02T01:56:19.395Z,8.10
2017-09-02T01:58:47.733Z,7.28
2017-09-02T02:01:16.047Z,7.74
2017-09-02T02:03:44.383Z,7.22
2017-09-02T02:06:12.696Z,7.34
2017-09-02T02:08:41.036Z,7.70
2017-09-02T02:11:09.355Z,7.42
2017-09-02T02:13:37.683Z,7.20
2017-09-02T02:16:06.015Z,7.78
2017-09-02T02:18:34.332Z,8.62
2017-09-02T02:21:02.664Z,7.50
2017-09-02T02:23:30.978Z,7.26
2017-09-02T02:25:59.312Z,7.78
2017-09-02T02:28:27.624Z,7.24
2017-09-02T02:30:55.951Z,7.30
2017-09-02T02:33:24.272Z,7.90
2017-09-02T02:35:52.623Z,8.10
2017-09-02T02:38:20.936Z,6.90
2017-09-02T02:40:49.253Z,7.30
2017-09-02T02:43:17.597Z,7.54
2017-09-02T02:45:45.913Z,7.56
2017-09-02T02:48:14.251Z,6.84
2017-09-02T02:50:42.574Z,7.12
2017-09-02T02:53:10.145Z,7.44
2017-09-02T02:55:38.461Z,7.24
2017-09-02T02:58:06.792Z,6.82
2017-09-02T03:00:35.108Z,7.58
2017-09-02T03:03:03.448Z,6.62
2017-09-02T03:05:31.763Z,7.42
2017-09-02T03:08:00.080Z,7.20
2017-09-02T03:10:28.420Z,7.16
2017-09-02T03:12:55.971Z,7.48
2017-09-02T03:15:24.304Z,7.00
2017-09-02T03:17:52.625Z,7.24
2017-09-02T03:20:20.960Z,6.10
2017-09-02T03:22:49.267Z,6.54
2017-09-02T03:25:17.604Z,7.12
2017-09-02T03:27:45.917Z,6.36
2017-09-02T03:30:14.260Z,6.34
2017-09-02T03:32:42.575Z,7.22
2017-09-02T03:35:10.893Z,7.40
2017-09-02T03:37:39.230Z,7.62
2017-09-02T03:40:07.540Z,8.16
2017-09-02T03:42:35.881Z,8.20
2017-09-02T03:45:04.196Z,8.20
2017-09-02T03:47:32.533Z,8.48
2017-09-02T03:50:00.083Z,9.46
2017-09-02T03:52:28.419Z,7.42
2017-09-02T03:54:56.737Z,7.44
2017-09-02T03:57:25.077Z,7.46
2017-09-02T03:59:53.389Z,8.08
2017-09-02T04:02:21.708Z,7.92
2017-09-02T04:04:50.047Z,7.74
2017-09-02T04:07:18.404Z,8.46
2017-09-02T04:09:46.739Z,9.10
2017-09-02T04:12:14.288Z,8.72
2017-09-02T04:14:42.634Z,8.70
2017-09-02T04:17:10.961Z,8.86
2017-09-02T04:19:39.301Z,9.12
2017-09-02T04:22:07.617Z,7.98
2017-09-02T04:24:35.960Z,9.34
2017-09-02T04:27:04.279Z,8.20
2017-09-02T04:29:32.639Z,8.56
2017-09-02T04:32:00.955Z,8.90
2017-09-02T04:34:29.271Z,8.04
2017-09-02T04:36:57.608Z,8.52
2017-09-02T04:39:25.923Z,8.02
2017-09-02T04:41:54.262Z,7.46
2017-09-02T04:44:22.573Z,7.84
2017-09-02T04:46:50.913Z,8.24
2017-09-02T04:49:19.233Z,7.42
2017-09-02T04:51:47.571Z,7.94
2017-09-02T04:54:15.888Z,7.06
2017-09-02T04:56:44.223Z,7.94
2017-09-02T04:59:12.536Z,7.20
2017-09-02T05:01:40.902Z,8.96
2017-09-02T05:04:09.221Z,7.96
2017-09-02T05:06:37.535Z,7.86
2017-09-02T05:09:05.872Z,8.94
2017-09-02T05:11:34.183Z,8.94
2017-09-02T05:14:02.526Z,9.16
2017-09-02T05:16:30.846Z,9.96
2017-09-02T05:18:59.187Z,10.54
2017-09-02T05:21:27.498Z,10.64
2017-09-02T05:23:55.844Z,10.86
2017-09-02T05:26:24.164Z,9.78
2017-09-02T05:28:52.496Z,10.20
2017-09-02T05:31:20.047Z,10.42
2017-09-02T05:33:48.406Z,11.66
2017-09-02T05:36:16.723Z,12.10
2017-09-02T05:38:45.047Z,10.74
2017-09-02T05:41:13.395Z,9.94
2017-09-02T05:43:41.713Z,10.82
2017-09-02T05:46:10.057Z,12.20
2017-09-02T05:48:38.380Z,12.10
2017-09-02T05:51:06.715Z,12.60
2017-09-02T05:53:35.036Z,12.18
2017-09-02T05:56:03.377Z,13.56
2017-09-02T05:58:31.702Z,11.58
2017-09-02T06:01:00.048Z,13.76
2017-09-02T06:03:28.373Z,12.18
2017-09-02T06:05:56.720Z,12.96
2017-09-02T06:08:25.047Z,13.76
2017-09-02T06:10:53.371Z,12.40
2017-09-02T06:13:21.711Z,13.30
2017-09-02T06:15:50.357Z,13.94
2017-09-02T06:18:18.735Z,14.98
2017-09-02T06:20:47.075Z,14.50
2017-09-02T06:23:15.464Z,13.24
2017-09-02T06:25:44.330Z,15.50
2017-09-02T06:28:12.692Z,14.02
2017-09-02T06:30:41.013Z,23.20
2017-09-02T06:33:09.357Z,16.22
2017-09-02T06:35:37.677Z,15.80
2017-09-02T06:38:05.994Z,16.54
2017-09-02T06:40:34.335Z,16.68
2017-09-02T06:43:02.676Z,15.94
2017-09-02T06:45:31.034Z,15.54
2017-09-02T06:47:59.437Z,16.22
2017-09-02T06:50:27.780Z,28.28
2017-09-02T06:52:56.105Z,24.72
2017-09-02T06:55:24.451Z,30.56
2017-09-02T06:57:52.769Z,36.08
2017-09-02T07:00:21.203Z,26.66
2017-09-02T07:02:48.775Z,21.94
2017-09-02T07:05:17.096Z,22.04
2017-09-02T07:07:45.438Z,72.90
2017-09-02T07:10:13.757Z,35.38
2017-09-02T07:12:42.099Z,23.70
2017-09-02T07:15:10.416Z,21.70
2017-09-02T07:17:38.772Z,27.60
2017-09-02T07:20:07.103Z,23.42
2017-09-02T07:22:35.423Z,27.98
2017-09-02T07:25:03.764Z,24.74
2017-09-02T07:27:32.087Z,27.42
2017-09-02T07:30:00.428Z,25.62
2017-09-02T07:32:28.747Z,24.96
2017-09-02T07:34:57.083Z,31.38
2017-09-02T07:37:25.399Z,30.62
2017-09-02T07:39:53.756Z,33.06
2017-09-02T07:42:22.073Z,32.44
2017-09-02T07:44:50.418Z,32.12
2017-09-02T07:47:18.755Z,33.16
2017-09-02T07:49:47.067Z,31.28
2017-09-02T07:52:15.403Z,32.56
2017-09-02T07:54:43.728Z,33.64
2017-09-02T07:57:12.067Z,35.50
2017-09-02T07:59:40.387Z,32.96
2017-09-02T08:02:07.956Z,34.40
2017-09-02T08:04:36.276Z,32.94
2017-09-02T08:07:04.637Z,32.14
2017-09-02T08:09:32.953Z,37.78
2017-09-02T08:12:01.270Z,33.46
2017-09-02T08:14:29.612Z,35.54
2017-09-02T08:16:57.979Z,36.92
2017-09-02T08:19:26.319Z,36.82
2017-09-02T08:21:54.639Z,39.44
2017-09-02T08:24:22.980Z,36.98
2017-09-02T08:26:51.294Z,38.52
2017-09-02T08:29:19.634Z,39.04
2017-09-02T08:31:47.953Z,41.40
2017-09-02T08:34:16.307Z,46.38
2017-09-02T08:36:44.624Z,44.18
2017-09-02T08:39:12.945Z,42.76
2017-09-02T08:41:41.297Z,42.96
2017-09-02T08:44:09.611Z,41.36
2017-09-02T08:46:37.956Z,41.18
2017-09-02T08:49:06.288Z,40.24
2017-09-02T08:51:34.625Z,37.20
2017-09-02T08:54:02.940Z,36.30
2017-09-02T08:56:31.279Z,33.32
2017-09-02T08:58:59.599Z,33.68
2017-09-02T09:01:27.948Z,31.48
2017-09-02T09:03:56.279Z,34.84
2017-09-02T09:06:24.641Z,33.56
2017-09-02T09:08:52.965Z,33.02
2017-09-02T09:11:20.519Z,32.10
2017-09-02T09:13:48.871Z,31.56
2017-09-02T09:16:17.199Z,31.88
2017-09-02T09:18:45.539Z,29.08
2017-09-02T09:21:13.864Z,27.42
2017-09-02T09:23:42.213Z,27.44
2017-09-02T09:26:10.534Z,27.54
2017-09-02T09:28:38.884Z,29.12
2017-09-02T09:31:07.228Z,27.28
2017-09-02T09:33:34.844Z,26.62
2017-09-02T09:36:03.176Z,30.40
2017-09-02T09:38:31.500Z,25.98
2017-09-02T09:40:59.846Z,27.22
2017-09-02T09:43:28.168Z,24.38
2017-09-02T09:45:56.520Z,24.90
2017-09-02T09:48:24.841Z,26.06
2017-09-02T09:50:53.194Z,26.08
2017-09-02T09:53:21.519Z,26.64
2017-09-02T09:55:49.863Z,24.08
2017-09-02T09:58:18.180Z,23.94
2017-09-02T10:00:46.567Z,21.88
2017-09-02T10:03:14.884Z,22.38
2017-09-02T10:05:42.443Z,21.18
2017-09-02T10:08:10.788Z,20.28
2017-09-02T10:10:38.335Z,20.32
2017-09-02T10:13:06.686Z,19.36
2017-09-02T10:15:34.243Z,19.50
2017-09-02T10:18:02.579Z,20.20
2017-09-02T10:20:30.896Z,17.80
2017-09-02T10:22:59.242Z,17.08
2017-09-02T10:25:27.559Z,18.78
2017-09-02T10:27:55.923Z,20.90
2017-09-02T10:30:24.256Z,41.08
2017-09-02T10:32:52.625Z,42.42
2017-09-02T10:35:20.943Z,22.18
2017-09-02T10:37:49.267Z,21.38
2017-09-02T10:40:17.607Z,26.58
2017-09-02T10:42:45.923Z,18.82
2017-09-02T10:45:14.276Z,22.40
2017-09-02T10:47:42.595Z,19.14
2017-09-02T10:50:10.962Z,17.96
2017-09-02T10:52:39.291Z,18.58
2017-09-02T10:55:06.875Z,20.78
2017-09-02T10:57:35.204Z,19.14
2017-09-02T11:00:03.581Z,19.00
2017-09-02T11:02:31.907Z,19.64
2017-09-02T11:05:00.223Z,17.56
2017-09-02T11:07:28.567Z,19.96
2017-09-02T11:09:56.120Z,19.04
2017-09-02T11:12:24.466Z,19.60
2017-09-02T11:14:52.783Z,19.00
2017-09-02T11:17:21.122Z,18.88
2017-09-02T11:19:48.684Z,18.64
2017-09-02T11:22:17.033Z,19.80
2017-09-02T11:24:45.355Z,18.66
2017-09-02T11:27:13.722Z,17.64
2017-09-02T11:29:42.044Z,19.42
2017-09-02T11:32:10.388Z,18.80
2017-09-02T11:34:38.764Z,18.98
2017-09-02T11:37:07.079Z,16.76
2017-09-02T11:39:35.514Z,16.58
2017-09-02T11:42:03.867Z,16.22
2017-09-02T11:44:32.216Z,18.56
2017-09-02T11:47:00.535Z,18.10
2017-09-02T11:49:28.891Z,18.66
2017-09-02T11:51:57.220Z,18.28
2017-09-02T11:54:25.579Z,17.36
2017-09-02T11:56:53.894Z,17.72
2017-09-02T11:59:22.255Z,18.46
2017-09-02T12:01:50.590Z,15.80
2017-09-02T12:04:18.908Z,14.62
2017-09-02T12:06:47.250Z,14.56
2017-09-02T12:09:15.579Z,16.10
2017-09-02T12:11:43.927Z,15.48
2017-09-02T12:14:12.258Z,13.84
2017-09-02T12:16:40.621Z,14.42
2017-09-02T12:19:09.000Z,14.66
2017-09-02T12:21:37.350Z,15.70
2017-09-02T12:24:05.677Z,16.18
2017-09-02T12:26:34.029Z,14.90
2017-09-02T12:29:02.355Z,14.42
2017-09-02T12:31:30.716Z,15.96
2017-09-02T12:33:59.044Z,16.66
2017-09-02T12:36:27.367Z,16.58
2017-09-02T12:38:55.717Z,16.28
2017-09-02T12:41:24.039Z,14.50
2017-09-02T12:43:52.388Z,13.62
2017-09-02T12:46:20.738Z,15.60
2017-09-02T12:48:49.077Z,14.62
2017-09-02T12:51:17.401Z,15.76
2017-09-02T12:53:45.749Z,14.82
2017-09-02T12:56:14.156Z,21.84
2017-09-02T12:58:42.524Z,22.44
2017-09-02T13:01:10.844Z,23.90
2017-09-02T13:03:39.175Z,25.00
2017-09-02T13:06:07.516Z,24.04
2017-09-02T13:08:35.938Z,19.06
2017-09-02T13:11:04.287Z,20.34
2017-09-02T13:13:32.613Z,23.24
2017-09-02T13:16:00.196Z,22.54
2017-09-02T13:18:28.849Z,23.78
2017-09-02T13:20:57.197Z,23.76
2017-09-02T13:23:25.520Z,24.98
2017-09-02T13:25:53.889Z,23.30
2017-09-02T13:28:22.237Z,24.64
2017-09-02T13:30:50.556Z,26.56
2017-09-02T13:33:18.920Z,25.44
2017-09-02T13:35:47.240Z,28.20
2017-09-02T13:38:15.685Z,19.08
2017-09-02T13:40:44.035Z,23.70
2017-09-02T13:43:12.392Z,22.18
2017-09-02T13:45:39.968Z,16.30
2017-09-02T13:48:08.303Z,16.84
2017-09-02T13:50:36.637Z,15.06
2017-09-02T13:53:05.026Z,16.22
2017-09-02T13:55:33.361Z,15.80
2017-09-02T13:58:01.709Z,16.80
2017-09-02T14:00:30.024Z,15.88
2017-09-02T14:02:58.360Z,14.50
2017-09-02T14:05:26.704Z,15.28
2017-09-02T14:07:55.027Z,16.22
2017-09-02T14:10:31.302Z,15.70
2017-09-02T14:12:59.631Z,16.52
2017-09-02T14:15:28.023Z,16.42
2017-09-02T14:17:56.348Z,18.10
2017-09-02T14:20:24.759Z,16.36
2017-09-02T14:22:53.087Z,15.56
2017-09-02T14:25:21.440Z,14.74
2017-09-02T14:27:49.759Z,16.02
2017-09-02T14:30:18.175Z,14.42
2017-09-02T14:32:46.492Z,13.86
2017-09-02T14:35:14.823Z,13.18
2017-09-02T14:37:43.179Z,12.00
2017-09-02T14:40:11.520Z,10.92
2017-09-02T14:42:39.876Z,10.04
2017-09-02T14:45:08.200Z,10.06
2017-09-02T14:47:36.536Z,9.92
2017-09-02T14:50:04.857Z,9.82
2017-09-02T14:52:33.215Z,9.48
2017-09-02T14:55:01.540Z,9.60
2017-09-02T14:57:29.879Z,9.92
2017-09-02T14:59:58.200Z,9.28
2017-09-02T15:02:26.558Z,10.06
2017-09-02T15:04:54.881Z,9.06
2017-09-02T15:07:23.239Z,10.36
2017-09-02T15:09:51.583Z,10.82
2017-09-02T15:12:19.164Z,9.48
2017-09-02T15:14:47.532Z,11.16
2017-09-02T15:17:15.864Z,10.12
2017-09-02T15:19:43.456Z,13.36
2017-09-02T15:22:11.866Z,11.32
2017-09-02T15:24:40.208Z,11.94
2017-09-02T15:27:08.624Z,13.66
2017-09-02T15:29:36.962Z,11.68
2017-09-02T15:32:05.288Z,12.02
2017-09-02T15:34:33.658Z,11.78
2017-09-02T15:37:01.985Z,11.42
2017-09-02T15:39:30.306Z,12.04
2017-09-02T15:41:57.885Z,10.90
2017-09-02T15:44:26.246Z,11.20
2017-09-02T15:46:54.605Z,10.98
2017-09-02T15:49:22.931Z,11.06
2017-09-02T15:51:51.287Z,12.66
2017-09-02T15:54:19.653Z,10.82
2017-09-02T15:56:48.063Z,11.72
2017-09-02T15:59:16.415Z,12.16
2017-09-02T16:01:44.755Z,11.60
2017-09-02T16:04:13.076Z,13.84
2017-09-02T16:06:41.396Z,11.58
2017-09-02T16:09:09.744Z,11.94
2017-09-02T16:11:38.071Z,11.84
2017-09-02T16:14:06.421Z,11.94
2017-09-02T16:16:34.739Z,11.84
2017-09-02T16:19:03.151Z,11.12
2017-09-02T16:21:31.469Z,12.12
2017-09-02T16:23:59.816Z,12.00
2017-09-02T16:26:28.140Z,11.70
2017-09-02T16:28:56.492Z,12.20
2017-09-02T16:31:24.833Z,11.00
2017-09-02T16:33:53.183Z,10.58
2017-09-02T16:36:21.506Z,11.42
2017-09-02T16:38:49.820Z,10.64
2017-09-02T16:41:18.159Z,12.06
2017-09-02T16:43:46.476Z,12.60
2017-09-02T16:46:14.823Z,12.68
2017-09-02T16:48:43.147Z,12.32
2017-09-02T16:51:11.484Z,12.52
2017-09-02T16:53:39.803Z,11.38
2017-09-02T16:56:08.137Z,11.78
2017-09-02T16:58:36.459Z,10.68
2017-09-02T17:01:04.820Z,11.42
2017-09-02T17:03:33.140Z,12.08
2017-09-02T17:06:01.512Z,11.84
2017-09-02T17:08:29.861Z,12.92
2017-09-02T17:10:58.264Z,13.60
2017-09-02T17:13:26.608Z,12.70
2017-09-02T17:15:54.931Z,12.66
2017-09-02T17:18:23.327Z,12.36
2017-09-02T17:20:51.695Z,12.86
2017-09-02T17:23:20.082Z,13.54
2017-09-02T17:25:47.635Z,13.22
2017-09-02T17:28:16.016Z,13.54
2017-09-02T17:30:44.343Z,12.84
2017-09-02T17:33:12.663Z,13.10
2017-09-02T17:35:40.999Z,13.78
2017-09-02T17:38:09.320Z,14.64
2017-09-02T17:40:37.662Z,14.54
2017-09-02T17:43:05.983Z,14.24
2017-09-02T17:45:34.319Z,14.32
2017-09-02T17:48:02.645Z,14.70
2017-09-02T17:50:31.031Z,15.04
2017-09-02T17:52:59.367Z,17.26
2017-09-02T17:55:27.703Z,16.30
2017-09-02T17:57:56.025Z,14.90
2017-09-02T18:00:24.371Z,14.98
2017-09-02T18:02:52.687Z,14.58
2017-09-02T18:05:21.018Z,16.12
2017-09-02T18:07:49.360Z,15.52
2017-09-02T18:10:17.679Z,14.94
2017-09-02T18:12:46.112Z,15.72
2017-09-02T18:15:14.439Z,15.62
2017-09-02T18:17:42.786Z,15.26
2017-09-02T18:20:12.518Z,14.92
2017-09-02T18:22:41.768Z,15.12
2017-09-02T18:25:10.789Z,23.64
2017-09-02T18:27:39.598Z,17.40
2017-09-02T18:30:08.510Z,22.12
2017-09-02T18:32:36.928Z,32.24
2017-09-02T18:35:05.502Z,35.98
2017-09-02T18:37:34.289Z,23.90
2017-09-02T18:40:02.847Z,19.60
2017-09-02T18:42:31.596Z,21.86
2017-09-02T18:44:59.388Z,17.18
2017-09-02T18:47:28.244Z,17.10
2017-09-02T18:49:57.020Z,29.02
2017-09-02T18:52:26.093Z,76.42
2017-09-02T18:54:54.532Z,47.02
2017-09-02T18:57:23.228Z,58.16
2017-09-02T18:59:52.080Z,40.98
2017-09-02T19:02:20.397Z,35.24
2017-09-02T19:04:50.077Z,21.24
2017-09-02T19:07:18.822Z,19.38
2017-09-02T19:09:48.848Z,25.90
2017-09-02T19:12:17.883Z,34.52
2017-09-02T19:14:46.458Z,55.12
2017-09-02T19:17:15.159Z,33.68
2017-09-02T19:19:43.637Z,26.90
2017-09-02T19:22:12.736Z,45.42
2017-09-02T19:24:41.303Z,36.74
2017-09-02T19:27:10.720Z,31.08
2017-09-02T19:29:39.587Z,50.10
2017-09-02T19:32:08.468Z,117.58
2017-09-02T19:34:36.979Z,89.52
2017-09-02T19:37:05.614Z,325.90
2017-09-02T19:39:34.044Z,118.04
2017-09-02T19:42:02.954Z,30.48
2017-09-02T19:44:31.775Z,23.80
2017-09-02T19:47:01.291Z,22.60
2017-09-02T19:49:29.958Z,33.40
2017-09-02T19:51:59.249Z,26.52
2017-09-02T19:54:28.230Z,29.86
2017-09-02T19:56:58.269Z,36.90
2017-09-02T19:59:27.328Z,46.04
2017-09-02T20:01:57.016Z,30.62
2017-09-02T20:04:26.581Z,27.52
2017-09-02T20:06:55.196Z,17.86
2017-09-02T20:09:24.348Z,20.86
2017-09-02T20:11:53.776Z,19.02
2017-09-02T20:14:22.931Z,20.00
2017-09-02T20:16:52.644Z,17.90
2017-09-02T20:19:21.118Z,16.10
2017-09-02T20:21:49.613Z,18.02
2017-09-02T20:24:18.106Z,15.98
2017-09-02T20:26:47.008Z,15.62
2017-09-02T20:29:17.351Z,16.08
2017-09-02T20:31:46.889Z,17.04
2017-09-02T20:34:16.424Z,21.32
2017-09-02T20:36:45.526Z,27.14
2017-09-02T20:39:15.745Z,18.62
2017-09-02T20:41:45.312Z,17.36
2017-09-02T20:44:15.933Z,25.84
2017-09-02T20:46:44.455Z,25.16
2017-09-02T20:49:14.737Z,22.96
2017-09-02T20:51:44.713Z,23.20
2017-09-02T20:54:14.914Z,22.48
2017-09-02T20:56:43.878Z,23.02
2017-09-02T20:59:20.298Z,17.66
2017-09-02T21:01:50.722Z,17.64
2017-09-02T21:04:19.311Z,18.16
2017-09-02T21:06:47.677Z,18.90
2017-09-02T21:09:16.420Z,18.40
2017-09-02T21:11:44.740Z,18.84
2017-09-02T21:14:13.079Z,18.78
2017-09-02T21:16:41.416Z,17.76
2017-09-02T21:19:09.757Z,18.10
2017-09-02T21:21:38.079Z,17.50
2017-09-02T21:24:06.424Z,18.52
2017-09-02T21:26:34.747Z,17.66
2017-09-02T21:29:03.099Z,17.36
2017-09-02T21:31:31.419Z,17.92
2017-09-02T21:33:59.772Z,19.90
2017-09-02T21:36:28.116Z,21.14
2017-09-02T21:38:56.459Z,20.96
2017-09-02T21:41:24.784Z,21.64
2017-09-02T21:43:53.140Z,17.82
2017-09-02T21:46:21.466Z,18.84
2017-09-02T21:48:49.778Z,18.28
2017-09-02T21:51:18.122Z,18.30
2017-09-02T21:53:46.439Z,18.10
2017-09-02T21:56:14.786Z,16.34
2017-09-02T21:58:43.105Z,16.96
2017-09-02T22:01:11.448Z,19.04
2017-09-02T22:03:39.764Z,22.20
2017-09-02T22:06:08.104Z,31.22
2017-09-02T22:08:36.416Z,24.58
2017-09-02T22:11:04.754Z,30.54
2017-09-02T22:13:33.078Z,21.12
2017-09-02T22:16:01.396Z,19.62
2017-09-02T22:18:29.732Z,21.78
2017-09-02T22:20:58.047Z,35.88
2017-09-02T22:23:26.421Z,26.64
2017-09-02T22:25:54.745Z,52.68
2017-09-02T22:28:23.092Z,76.70
2017-09-02T22:30:51.413Z,63.46
2017-09-02T22:33:19.757Z,31.26
2017-09-02T22:35:48.066Z,18.08
2017-09-02T22:38:16.420Z,44.68
2017-09-02T22:40:44.740Z,101.36
2017-09-02T22:43:13.058Z,24.88
2017-09-02T22:45:41.404Z,32.60
2017-09-02T22:48:09.720Z,28.50
2017-09-02T22:50:38.064Z,17.62
2017-09-02T22:53:06.392Z,16.94
2017-09-02T22:55:34.731Z,19.54
2017-09-02T22:58:03.044Z,18.00
2017-09-02T23:00:31.385Z,18.20
2017-09-02T23:02:59.700Z,19.14
2017-09-02T23:05:28.044Z,17.80
2017-09-02T23:07:56.368Z,19.86
2017-09-02T23:10:24.723Z,18.46
2017-09-02T23:12:53.044Z,20.42
2017-09-02T23:15:21.355Z,18.30
2017-09-02T23:17:49.691Z,19.28
2017-09-02T23:20:18.008Z,18.02
2017-09-02T23:22:45.581Z,18.72
2017-09-02T23:25:13.899Z,15.40
2017-09-02T23:27:42.235Z,17.14
2017-09-02T23:30:10.547Z,18.64
2017-09-02T23:32:38.895Z,18.74
2017-09-02T23:35:07.219Z,18.16
2017-09-02T23:37:35.558Z,16.30
2017-09-02T23:40:03.879Z,17.02
2017-09-02T23:42:32.247Z,18.24
2017-09-02T23:45:00.567Z,17.90
2017-09-02T23:47:28.892Z,15.98
2017-09-02T23:49:57.232Z,17.32
2017-09-02T23:52:25.544Z,16.70
2017-09-02T23:54:53.894Z,17.30
2017-09-02T23:57:22.207Z,18.62
2017-09-02T23:59:50.551Z,17.90
